sensor_id;sensor_type;location;lat;lon;timestamp;pressure;altitude;pressure_sealevel;temperature;humidity
69971;BME280;57301;50.328;8.542;2023-02-11T00:01:12;100343.44;;;0.39;85.44
69971;BME280;57301;50.328;8.542;2023-02-11T00:03:41;100344.84;;;0.51;85.07
69971;BME280;57301;50.328;8.542;2023-02-11T00:06:09;100338.19;;;0.39;85.38
69971;BME280;57301;50.328;8.542;2023-02-11T00:08:37;100332.22;;;0.34;85.57
69971;BME280;57301;50.328;8.542;2023-02-11T00:11:04;100331.34;;;0.34;85.37
69971;BME280;57301;50.328;8.542;2023-02-11T00:13:30;100333.06;;;0.35;85.01
69971;BME280;57301;50.328;8.542;2023-02-11T00:15:57;100329.88;;;0.25;86.18
69971;BME280;57301;50.328;8.542;2023-02-11T00:18:23;100335.44;;;0.44;85.86
69971;BME280;57301;50.328;8.542;2023-02-11T00:20:50;100325.66;;;0.49;86.23
69971;BME280;57301;50.328;8.542;2023-02-11T00:23:16;100326.31;;;0.57;85.81
69971;BME280;57301;50.328;8.542;2023-02-11T00:25:44;100321.72;;;0.64;86.02
69971;BME280;57301;50.328;8.542;2023-02-11T00:28:11;100326.91;;;0.65;86.10
69971;BME280;57301;50.328;8.542;2023-02-11T00:30:37;100325.16;;;0.66;85.71
69971;BME280;57301;50.328;8.542;2023-02-11T00:33:04;100331.00;;;0.75;85.98
69971;BME280;57301;50.328;8.542;2023-02-11T00:35:31;100321.81;;;0.89;85.46
69971;BME280;57301;50.328;8.542;2023-02-11T00:37:57;100321.09;;;0.84;85.56
69971;BME280;57301;50.328;8.542;2023-02-11T00:40:24;100328.31;;;0.77;85.52
69971;BME280;57301;50.328;8.542;2023-02-11T00:42:51;100326.22;;;0.88;85.51
69971;BME280;57301;50.328;8.542;2023-02-11T00:45:17;100324.53;;;0.86;85.54
69971;BME280;57301;50.328;8.542;2023-02-11T00:47:46;100335.03;;;0.86;85.64
69971;BME280;57301;50.328;8.542;2023-02-11T00:50:13;100318.00;;;0.99;85.46
69971;BME280;57301;50.328;8.542;2023-02-11T00:52:39;100316.47;;;0.92;85.90
69971;BME280;57301;50.328;8.542;2023-02-11T00:55:06;100325.03;;;0.98;85.81
69971;BME280;57301;50.328;8.542;2023-02-11T00:57:33;100326.50;;;1.07;86.33
69971;BME280;57301;50.328;8.542;2023-02-11T00:59:59;100324.38;;;1.18;85.90
69971;BME280;57301;50.328;8.542;2023-02-11T01:02:26;100318.03;;;1.25;85.42
69971;BME280;57301;50.328;8.542;2023-02-11T01:04:52;100321.75;;;1.18;85.43
69971;BME280;57301;50.328;8.542;2023-02-11T01:07:19;100318.78;;;1.29;85.17
69971;BME280;57301;50.328;8.542;2023-02-11T01:09:45;100316.38;;;1.21;84.94
69971;BME280;57301;50.328;8.542;2023-02-11T01:12:12;100321.63;;;1.23;85.20
69971;BME280;57301;50.328;8.542;2023-02-11T01:14:38;100313.06;;;1.16;85.64
69971;BME280;57301;50.328;8.542;2023-02-11T01:17:05;100312.06;;;1.20;85.75
69971;BME280;57301;50.328;8.542;2023-02-11T01:19:31;100301.28;;;1.28;85.90
69971;BME280;57301;50.328;8.542;2023-02-11T01:21:58;100299.31;;;1.34;85.58
69971;BME280;57301;50.328;8.542;2023-02-11T01:24:25;100294.97;;;1.33;85.32
69971;BME280;57301;50.328;8.542;2023-02-11T01:26:51;100290.75;;;1.29;84.79
69971;BME280;57301;50.328;8.542;2023-02-11T01:29:18;100293.56;;;1.23;85.58
69971;BME280;57301;50.328;8.542;2023-02-11T01:31:44;100297.91;;;1.24;85.40
69971;BME280;57301;50.328;8.542;2023-02-11T01:34:11;100299.72;;;1.22;86.29
69971;BME280;57301;50.328;8.542;2023-02-11T01:36:38;100293.50;;;1.25;86.54
69971;BME280;57301;50.328;8.542;2023-02-11T01:39:04;100280.88;;;1.36;86.64
69971;BME280;57301;50.328;8.542;2023-02-11T01:41:31;100283.25;;;1.44;85.99
69971;BME280;57301;50.328;8.542;2023-02-11T01:43:57;100275.63;;;1.36;85.96
69971;BME280;57301;50.328;8.542;2023-02-11T01:46:36;100276.13;;;1.21;86.74
69971;BME280;57301;50.328;8.542;2023-02-11T01:49:15;100267.88;;;1.31;87.72
69971;BME280;57301;50.328;8.542;2023-02-11T01:51:49;100261.44;;;1.40;88.03
69971;BME280;57301;50.328;8.542;2023-02-11T01:54:20;100254.63;;;1.59;88.29
69971;BME280;57301;50.328;8.542;2023-02-11T01:57:06;100248.78;;;1.76;87.33
69971;BME280;57301;50.328;8.542;2023-02-11T02:08:39;100247.03;;;2.24;89.28
69971;BME280;57301;50.328;8.542;2023-02-11T02:11:07;100242.91;;;2.40;88.97
69971;BME280;57301;50.328;8.542;2023-02-11T02:13:34;100248.66;;;2.50;88.34
69971;BME280;57301;50.328;8.542;2023-02-11T02:16:05;100245.56;;;2.62;88.38
69971;BME280;57301;50.328;8.542;2023-02-11T02:22:32;100245.66;;;2.81;87.19
69971;BME280;57301;50.328;8.542;2023-02-11T02:30:37;100252.72;;;3.02;86.30
69971;BME280;57301;50.328;8.542;2023-02-11T02:35:57;100245.53;;;3.06;85.42
69971;BME280;57301;50.328;8.542;2023-02-11T02:41:03;100245.56;;;3.26;84.32
69971;BME280;57301;50.328;8.542;2023-02-11T02:43:32;100242.69;;;3.32;85.13
69971;BME280;57301;50.328;8.542;2023-02-11T02:46:24;100244.53;;;3.50;83.25
69971;BME280;57301;50.328;8.542;2023-02-11T02:48:52;100246.75;;;3.60;82.51
69971;BME280;57301;50.328;8.542;2023-02-11T02:51:39;100257.97;;;3.65;82.85
69971;BME280;57301;50.328;8.542;2023-02-11T03:00:05;100245.44;;;3.49;82.57
69971;BME280;57301;50.328;8.542;2023-02-11T03:10:56;100252.56;;;3.47;82.34
69971;BME280;57301;50.328;8.542;2023-02-11T03:13:28;100247.47;;;3.43;82.35
69971;BME280;57301;50.328;8.542;2023-02-11T03:16:03;100236.66;;;3.29;82.73
69971;BME280;57301;50.328;8.542;2023-02-11T03:18:34;100233.19;;;3.06;83.69
69971;BME280;57301;50.328;8.542;2023-02-11T03:21:04;100221.09;;;3.02;84.24
69971;BME280;57301;50.328;8.542;2023-02-11T03:23:41;100217.28;;;3.09;84.06
69971;BME280;57301;50.328;8.542;2023-02-11T03:26:17;100219.47;;;3.20;83.70
69971;BME280;57301;50.328;8.542;2023-02-11T03:28:48;100203.59;;;3.21;83.72
69971;BME280;57301;50.328;8.542;2023-02-11T03:31:30;100196.34;;;3.27;82.99
69971;BME280;57301;50.328;8.542;2023-02-11T03:34:15;100181.97;;;3.13;82.44
69971;BME280;57301;50.328;8.542;2023-02-11T03:36:48;100176.84;;;2.88;84.76
69971;BME280;57301;50.328;8.542;2023-02-11T03:39:20;100169.56;;;2.53;86.57
69971;BME280;57301;50.328;8.542;2023-02-11T03:41:49;100163.91;;;2.62;86.03
69971;BME280;57301;50.328;8.542;2023-02-11T03:44:18;100164.34;;;2.73;85.88
69971;BME280;57301;50.328;8.542;2023-02-11T03:46:48;100162.38;;;2.78;85.61
69971;BME280;57301;50.328;8.542;2023-02-11T03:49:18;100161.97;;;2.87;85.13
69971;BME280;57301;50.328;8.542;2023-02-11T03:51:48;100159.91;;;2.95;84.55
69971;BME280;57301;50.328;8.542;2023-02-11T03:54:20;100156.78;;;2.86;83.84
69971;BME280;57301;50.328;8.542;2023-02-11T03:56:54;100162.22;;;2.81;84.13
69971;BME280;57301;50.328;8.542;2023-02-11T03:59:21;100176.81;;;2.68;84.95
69971;BME280;57301;50.328;8.542;2023-02-11T04:01:48;100181.78;;;2.76;84.69
69971;BME280;57301;50.328;8.542;2023-02-11T04:04:15;100188.81;;;2.75;84.52
69971;BME280;57301;50.328;8.542;2023-02-11T04:06:41;100182.53;;;2.79;84.10
69971;BME280;57301;50.328;8.542;2023-02-11T04:09:09;100179.59;;;2.65;84.35
69971;BME280;57301;50.328;8.542;2023-02-11T04:11:36;100181.00;;;2.74;84.50
69971;BME280;57301;50.328;8.542;2023-02-11T04:14:02;100183.44;;;2.56;85.25
69971;BME280;57301;50.328;8.542;2023-02-11T04:16:29;100194.44;;;2.46;86.67
69971;BME280;57301;50.328;8.542;2023-02-11T04:18:56;100208.44;;;2.68;86.41
69971;BME280;57301;50.328;8.542;2023-02-11T04:21:22;100209.84;;;2.77;85.80
69971;BME280;57301;50.328;8.542;2023-02-11T04:23:49;100201.63;;;2.84;85.64
69971;BME280;57301;50.328;8.542;2023-02-11T04:26:15;100204.53;;;2.99;85.30
69971;BME280;57301;50.328;8.542;2023-02-11T04:28:42;100201.38;;;2.90;85.21
69971;BME280;57301;50.328;8.542;2023-02-11T04:31:08;100196.25;;;3.08;85.19
69971;BME280;57301;50.328;8.542;2023-02-11T04:33:37;100193.97;;;3.20;83.87
69971;BME280;57301;50.328;8.542;2023-02-11T04:36:03;100193.91;;;3.22;83.94
69971;BME280;57301;50.328;8.542;2023-02-11T04:38:30;100200.09;;;3.21;83.70
69971;BME280;57301;50.328;8.542;2023-02-11T04:40:57;100192.31;;;3.18;83.90
69971;BME280;57301;50.328;8.542;2023-02-11T04:43:25;100176.28;;;3.22;83.65
69971;BME280;57301;50.328;8.542;2023-02-11T04:45:55;100173.41;;;3.29;83.46
69971;BME280;57301;50.328;8.542;2023-02-11T04:48:22;100173.59;;;3.44;82.58
69971;BME280;57301;50.328;8.542;2023-02-11T04:50:49;100174.91;;;3.34;82.76
69971;BME280;57301;50.328;8.542;2023-02-11T04:53:15;100183.41;;;3.41;83.14
69971;BME280;57301;50.328;8.542;2023-02-11T04:55:42;100176.09;;;3.47;82.69
69971;BME280;57301;50.328;8.542;2023-02-11T04:58:08;100170.50;;;3.35;82.43
69971;BME280;57301;50.328;8.542;2023-02-11T05:00:34;100170.03;;;3.45;82.70
69971;BME280;57301;50.328;8.542;2023-02-11T05:03:01;100155.94;;;3.26;82.99
69971;BME280;57301;50.328;8.542;2023-02-11T05:05:27;100144.84;;;3.38;83.31
69971;BME280;57301;50.328;8.542;2023-02-11T05:07:54;100152.22;;;3.30;83.03
69971;BME280;57301;50.328;8.542;2023-02-11T05:10:20;100156.25;;;3.39;83.25
69971;BME280;57301;50.328;8.542;2023-02-11T05:12:47;100160.47;;;3.22;83.68
69971;BME280;57301;50.328;8.542;2023-02-11T05:15:15;100156.91;;;3.44;83.11
69971;BME280;57301;50.328;8.542;2023-02-11T05:17:41;100158.81;;;3.40;82.75
69971;BME280;57301;50.328;8.542;2023-02-11T05:20:08;100165.69;;;3.44;83.03
69971;BME280;57301;50.328;8.542;2023-02-11T05:22:35;100175.53;;;3.60;82.39
69971;BME280;57301;50.328;8.542;2023-02-11T05:25:01;100187.69;;;3.83;81.35
69971;BME280;57301;50.328;8.542;2023-02-11T05:27:28;100170.47;;;3.94;80.47
69971;BME280;57301;50.328;8.542;2023-02-11T05:29:54;100174.22;;;3.89;80.84
69971;BME280;57301;50.328;8.542;2023-02-11T05:32:21;100186.69;;;3.85;80.05
69971;BME280;57301;50.328;8.542;2023-02-11T05:34:47;100191.78;;;3.90;80.48
69971;BME280;57301;50.328;8.542;2023-02-11T05:37:14;100184.00;;;3.87;80.62
69971;BME280;57301;50.328;8.542;2023-02-11T05:39:41;100182.00;;;3.92;80.43
69971;BME280;57301;50.328;8.542;2023-02-11T05:42:07;100185.06;;;3.83;80.64
69971;BME280;57301;50.328;8.542;2023-02-11T05:44:34;100178.50;;;3.91;80.26
69971;BME280;57301;50.328;8.542;2023-02-11T05:47:01;100178.09;;;3.82;80.16
69971;BME280;57301;50.328;8.542;2023-02-11T05:49:27;100176.84;;;3.70;81.07
69971;BME280;57301;50.328;8.542;2023-02-11T05:51:54;100167.44;;;3.64;81.04
69971;BME280;57301;50.328;8.542;2023-02-11T05:54:20;100156.59;;;3.70;81.06
69971;BME280;57301;50.328;8.542;2023-02-11T05:56:47;100188.94;;;3.74;81.05
69971;BME280;57301;50.328;8.542;2023-02-11T05:59:13;100191.31;;;3.80;80.39
69971;BME280;57301;50.328;8.542;2023-02-11T06:01:40;100212.00;;;3.70;80.52
69971;BME280;57301;50.328;8.542;2023-02-11T06:04:06;100213.59;;;3.74;80.52
69971;BME280;57301;50.328;8.542;2023-02-11T06:06:33;100205.88;;;3.70;80.75
69971;BME280;57301;50.328;8.542;2023-02-11T06:08:59;100205.78;;;3.71;80.88
69971;BME280;57301;50.328;8.542;2023-02-11T06:11:26;100203.47;;;3.45;81.63
69971;BME280;57301;50.328;8.542;2023-02-11T06:13:53;100208.50;;;3.49;81.21
69971;BME280;57301;50.328;8.542;2023-02-11T06:16:19;100202.59;;;3.44;82.08
69971;BME280;57301;50.328;8.542;2023-02-11T06:18:45;100195.84;;;3.37;82.21
69971;BME280;57301;50.328;8.542;2023-02-11T06:21:12;100181.56;;;3.22;82.43
69971;BME280;57301;50.328;8.542;2023-02-11T06:23:38;100175.88;;;3.11;83.22
69971;BME280;57301;50.328;8.542;2023-02-11T06:26:07;100162.53;;;3.16;83.58
69971;BME280;57301;50.328;8.542;2023-02-11T06:28:34;100148.56;;;3.14;83.02
69971;BME280;57301;50.328;8.542;2023-02-11T06:31:05;100149.59;;;3.10;84.21
69971;BME280;57301;50.328;8.542;2023-02-11T06:33:33;100149.72;;;2.86;85.00
69971;BME280;57301;50.328;8.542;2023-02-11T06:36:01;100155.66;;;2.91;85.19
69971;BME280;57301;50.328;8.542;2023-02-11T06:38:27;100159.91;;;2.95;84.53
69971;BME280;57301;50.328;8.542;2023-02-11T06:40:54;100155.22;;;3.02;84.48
69971;BME280;57301;50.328;8.542;2023-02-11T06:43:21;100166.16;;;3.13;84.22
69971;BME280;57301;50.328;8.542;2023-02-11T06:45:54;100158.97;;;3.17;84.30
69971;BME280;57301;50.328;8.542;2023-02-11T06:48:21;100163.03;;;3.24;83.71
69971;BME280;57301;50.328;8.542;2023-02-11T06:50:48;100166.34;;;3.29;83.49
69971;BME280;57301;50.328;8.542;2023-02-11T06:53:14;100156.22;;;3.20;84.04
69971;BME280;57301;50.328;8.542;2023-02-11T06:55:41;100154.81;;;3.32;83.61
69971;BME280;57301;50.328;8.542;2023-02-11T06:58:07;100166.59;;;3.43;83.57
69971;BME280;57301;50.328;8.542;2023-02-11T07:00:36;100171.94;;;3.62;82.85
69971;BME280;57301;50.328;8.542;2023-02-11T07:03:03;100162.72;;;3.71;82.11
69971;BME280;57301;50.328;8.542;2023-02-11T07:05:29;100172.56;;;3.67;81.72
69971;BME280;57301;50.328;8.542;2023-02-11T07:07:56;100172.53;;;3.88;81.75
69971;BME280;57301;50.328;8.542;2023-02-11T07:10:22;100164.66;;;3.86;81.36
69971;BME280;57301;50.328;8.542;2023-02-11T07:12:49;100162.16;;;3.83;80.95
69971;BME280;57301;50.328;8.542;2023-02-11T07:15:15;100155.19;;;4.01;81.06
69971;BME280;57301;50.328;8.542;2023-02-11T07:17:42;100153.31;;;4.22;80.76
69971;BME280;57301;50.328;8.542;2023-02-11T07:20:09;100160.41;;;4.57;79.54
69971;BME280;57301;50.328;8.542;2023-02-11T07:22:37;100159.09;;;4.66;78.45
69971;BME280;57301;50.328;8.542;2023-02-11T07:25:04;100166.91;;;4.87;77.11
69971;BME280;57301;50.328;8.542;2023-02-11T07:27:30;100174.03;;;4.84;77.92
69971;BME280;57301;50.328;8.542;2023-02-11T07:29:57;100177.16;;;5.27;76.36
69971;BME280;57301;50.328;8.542;2023-02-11T07:32:23;100182.69;;;5.05;76.15
69971;BME280;57301;50.328;8.542;2023-02-11T07:34:50;100181.34;;;5.31;75.55
69971;BME280;57301;50.328;8.542;2023-02-11T07:37:17;100193.81;;;5.80;73.59
69971;BME280;57301;50.328;8.542;2023-02-11T07:39:43;100196.53;;;5.96;73.05
69971;BME280;57301;50.328;8.542;2023-02-11T07:42:10;100192.09;;;5.96;72.96
69971;BME280;57301;50.328;8.542;2023-02-11T07:44:36;100199.53;;;5.88;73.18
69971;BME280;57301;50.328;8.542;2023-02-11T07:47:03;100199.81;;;6.16;71.57
69971;BME280;57301;50.328;8.542;2023-02-11T07:49:30;100199.72;;;6.34;72.32
69971;BME280;57301;50.328;8.542;2023-02-11T07:51:56;100198.66;;;6.84;70.27
69971;BME280;57301;50.328;8.542;2023-02-11T07:54:23;100200.91;;;6.76;69.59
69971;BME280;57301;50.328;8.542;2023-02-11T07:56:49;100209.19;;;6.38;70.73
69971;BME280;57301;50.328;8.542;2023-02-11T07:59:16;100211.81;;;7.01;69.35
69971;BME280;57301;50.328;8.542;2023-02-11T08:01:42;100210.31;;;7.11;68.38
69971;BME280;57301;50.328;8.542;2023-02-11T08:04:09;100221.78;;;7.42;67.52
69971;BME280;57301;50.328;8.542;2023-02-11T08:06:40;100226.91;;;7.45;66.63
69971;BME280;57301;50.328;8.542;2023-02-11T08:09:09;100217.69;;;7.36;66.79
69971;BME280;57301;50.328;8.542;2023-02-11T08:11:38;100224.84;;;6.74;68.27
69971;BME280;57301;50.328;8.542;2023-02-11T08:14:05;100227.75;;;6.54;69.87
69971;BME280;57301;50.328;8.542;2023-02-11T08:16:33;100232.53;;;5.65;71.54
69971;BME280;57301;50.328;8.542;2023-02-11T08:19:03;100237.34;;;6.07;72.36
69971;BME280;57301;50.328;8.542;2023-02-11T08:21:30;100240.22;;;6.20;71.14
69971;BME280;57301;50.328;8.542;2023-02-11T08:23:56;100233.50;;;5.80;72.47
69971;BME280;57301;50.328;8.542;2023-02-11T08:26:28;100234.97;;;5.35;73.84
69971;BME280;57301;50.328;8.542;2023-02-11T08:28:56;100237.22;;;5.60;73.94
69971;BME280;57301;50.328;8.542;2023-02-11T08:31:38;100237.63;;;5.85;72.76
69971;BME280;57301;50.328;8.542;2023-02-11T08:34:06;100232.16;;;5.55;73.89
69971;BME280;57301;50.328;8.542;2023-02-11T08:36:34;100230.53;;;5.35;75.06
69971;BME280;57301;50.328;8.542;2023-02-11T08:39:05;100227.63;;;5.40;75.73
69971;BME280;57301;50.328;8.542;2023-02-11T08:41:52;100235.81;;;5.35;75.44
69971;BME280;57301;50.328;8.542;2023-02-11T08:44:20;100230.97;;;5.44;75.85
69971;BME280;57301;50.328;8.542;2023-02-11T08:46:48;100232.56;;;5.98;74.63
69971;BME280;57301;50.328;8.542;2023-02-11T08:49:15;100242.38;;;6.29;73.51
69971;BME280;57301;50.328;8.542;2023-02-11T08:51:42;100250.16;;;6.48;72.70
69971;BME280;57301;50.328;8.542;2023-02-11T08:54:09;100252.63;;;6.67;71.57
69971;BME280;57301;50.328;8.542;2023-02-11T08:56:36;100243.16;;;6.79;71.39
69971;BME280;57301;50.328;8.542;2023-02-11T08:59:04;100247.44;;;6.65;71.88
69971;BME280;57301;50.328;8.542;2023-02-11T09:01:31;100246.06;;;6.74;72.21
69971;BME280;57301;50.328;8.542;2023-02-11T09:03:58;100251.78;;;6.82;71.99
69971;BME280;57301;50.328;8.542;2023-02-11T09:06:26;100254.38;;;6.52;72.50
69971;BME280;57301;50.328;8.542;2023-02-11T09:08:54;100261.03;;;6.59;72.78
69971;BME280;57301;50.328;8.542;2023-02-11T09:11:26;100263.31;;;6.81;72.01
69971;BME280;57301;50.328;8.542;2023-02-11T09:13:52;100267.00;;;6.63;73.35
69971;BME280;57301;50.328;8.542;2023-02-11T09:16:22;100277.13;;;6.88;72.24
69971;BME280;57301;50.328;8.542;2023-02-11T09:18:50;100285.56;;;6.79;72.80
69971;BME280;57301;50.328;8.542;2023-02-11T09:21:18;100280.78;;;6.54;72.95
69971;BME280;57301;50.328;8.542;2023-02-11T09:23:45;100280.69;;;6.71;72.42
69971;BME280;57301;50.328;8.542;2023-02-11T09:26:24;100287.69;;;6.56;73.06
69971;BME280;57301;50.328;8.542;2023-02-11T09:28:51;100285.38;;;6.50;72.96
69971;BME280;57301;50.328;8.542;2023-02-11T09:31:21;100277.13;;;5.90;75.38
69971;BME280;57301;50.328;8.542;2023-02-11T09:33:50;100279.88;;;6.22;74.95
69971;BME280;57301;50.328;8.542;2023-02-11T09:36:22;100274.88;;;5.48;77.01
69971;BME280;57301;50.328;8.542;2023-02-11T09:38:49;100276.31;;;5.19;79.12
69971;BME280;57301;50.328;8.542;2023-02-11T09:44:22;100286.84;;;5.55;77.70
69971;BME280;57301;50.328;8.542;2023-02-11T09:46:54;100280.75;;;5.87;76.76
69971;BME280;57301;50.328;8.542;2023-02-11T09:49:29;100285.22;;;6.04;75.82
69971;BME280;57301;50.328;8.542;2023-02-11T09:52:02;100287.84;;;5.87;75.60
69971;BME280;57301;50.328;8.542;2023-02-11T09:54:39;100291.44;;;6.03;76.58
69971;BME280;57301;50.328;8.542;2023-02-11T09:57:10;100293.72;;;6.27;75.67
69971;BME280;57301;50.328;8.542;2023-02-11T09:59:53;100301.09;;;6.37;74.56
69971;BME280;57301;50.328;8.542;2023-02-11T10:13:28;100306.69;;;5.81;77.83
69971;BME280;57301;50.328;8.542;2023-02-11T10:24:28;100318.03;;;5.83;78.00
69971;BME280;57301;50.328;8.542;2023-02-11T10:26:55;100306.69;;;5.63;78.61
69971;BME280;57301;50.328;8.542;2023-02-11T10:29:45;100309.78;;;5.89;78.61
69971;BME280;57301;50.328;8.542;2023-02-11T10:32:34;100316.91;;;5.71;79.68
69971;BME280;57301;50.328;8.542;2023-02-11T10:35:13;100313.09;;;5.59;80.03
69971;BME280;57301;50.328;8.542;2023-02-11T10:37:40;100313.38;;;5.88;79.30
69971;BME280;57301;50.328;8.542;2023-02-11T10:40:17;100301.41;;;6.15;78.20
69971;BME280;57301;50.328;8.542;2023-02-11T10:42:48;100302.56;;;5.75;80.82
69971;BME280;57301;50.328;8.542;2023-02-11T10:45:21;100297.47;;;6.23;79.25
69971;BME280;57301;50.328;8.542;2023-02-11T10:47:49;100294.72;;;6.08;78.30
69971;BME280;57301;50.328;8.542;2023-02-11T10:50:24;100303.56;;;6.07;79.35
69971;BME280;57301;50.328;8.542;2023-02-11T10:52:51;100297.28;;;6.26;78.45
69971;BME280;57301;50.328;8.542;2023-02-11T10:55:22;100298.03;;;6.45;77.97
69971;BME280;57301;50.328;8.542;2023-02-11T10:57:57;100290.44;;;6.55;77.90
69971;BME280;57301;50.328;8.542;2023-02-11T11:00:35;100286.69;;;6.26;78.61
69971;BME280;57301;50.328;8.542;2023-02-11T11:03:04;100279.31;;;6.48;77.85
69971;BME280;57301;50.328;8.542;2023-02-11T11:05:44;100280.59;;;6.57;77.47
69971;BME280;57301;50.328;8.542;2023-02-11T11:08:12;100285.81;;;6.90;76.96
69971;BME280;57301;50.328;8.542;2023-02-11T11:11:05;100292.41;;;7.14;75.97
69971;BME280;57301;50.328;8.542;2023-02-11T11:18:52;100291.38;;;7.01;75.99
69971;BME280;57301;50.328;8.542;2023-02-11T11:23:55;100299.50;;;6.98;75.95
69971;BME280;57301;50.328;8.542;2023-02-11T11:26:24;100306.25;;;7.04;76.03
69971;BME280;57301;50.328;8.542;2023-02-11T11:28:58;100299.19;;;7.34;74.83
69971;BME280;57301;50.328;8.542;2023-02-11T11:31:30;100301.91;;;6.87;76.13
69971;BME280;57301;50.328;8.542;2023-02-11T11:33:59;100305.84;;;6.95;76.29
69971;BME280;57301;50.328;8.542;2023-02-11T11:36:33;100302.78;;;5.71;80.69
69971;BME280;57301;50.328;8.542;2023-02-11T11:39:19;100312.09;;;6.30;80.00
69971;BME280;57301;50.328;8.542;2023-02-11T11:41:55;100309.97;;;5.69;82.54
69971;BME280;57301;50.328;8.542;2023-02-11T11:44:26;100304.69;;;5.69;83.59
69971;BME280;57301;50.328;8.542;2023-02-11T11:57:36;100300.22;;;6.37;82.06
69971;BME280;57301;50.328;8.542;2023-02-11T12:00:04;100303.72;;;6.70;80.86
69971;BME280;57301;50.328;8.542;2023-02-11T12:05:55;100295.16;;;6.97;79.47
69971;BME280;57301;50.328;8.542;2023-02-11T12:09:00;100289.44;;;6.57;80.49
69971;BME280;57301;50.328;8.542;2023-02-11T12:14:23;100289.72;;;6.35;82.75
69971;BME280;57301;50.328;8.542;2023-02-11T12:22:21;100274.78;;;6.66;82.88
69971;BME280;57301;50.328;8.542;2023-02-11T12:30:52;100288.53;;;7.04;81.07
69971;BME280;57301;50.328;8.542;2023-02-11T12:33:31;100286.94;;;6.54;82.18
69971;BME280;57301;50.328;8.542;2023-02-11T12:36:24;100287.53;;;6.59;83.14
69971;BME280;57301;50.328;8.542;2023-02-11T12:45:11;100286.66;;;6.74;82.62
69971;BME280;57301;50.328;8.542;2023-02-11T12:51:04;100286.69;;;7.36;80.01
69971;BME280;57301;50.328;8.542;2023-02-11T12:56:26;100283.13;;;7.21;80.43
69971;BME280;57301;50.328;8.542;2023-02-11T12:58:56;100280.59;;;7.04;80.44
69971;BME280;57301;50.328;8.542;2023-02-11T13:01:28;100277.97;;;6.88;81.85
69971;BME280;57301;50.328;8.542;2023-02-11T13:03:59;100268.03;;;6.60;83.18
69971;BME280;57301;50.328;8.542;2023-02-11T13:07:09;100266.81;;;6.97;82.04
69971;BME280;57301;50.328;8.542;2023-02-11T13:09:50;100270.16;;;7.01;81.54
69971;BME280;57301;50.328;8.542;2023-02-11T13:12:17;100264.66;;;7.20;80.28
69971;BME280;57301;50.328;8.542;2023-02-11T13:15:06;100266.25;;;7.38;79.25
69971;BME280;57301;50.328;8.542;2023-02-11T13:17:39;100255.00;;;7.19;80.00
69971;BME280;57301;50.328;8.542;2023-02-11T13:20:20;100251.34;;;7.36;79.60
69971;BME280;57301;50.328;8.542;2023-02-11T13:23:25;100255.88;;;7.04;80.48
69971;BME280;57301;50.328;8.542;2023-02-11T13:26:11;100255.19;;;7.00;80.79
69971;BME280;57301;50.328;8.542;2023-02-11T13:32:04;100254.88;;;6.59;83.58
69971;BME280;57301;50.328;8.542;2023-02-11T13:37:21;100248.16;;;6.99;81.77
69971;BME280;57301;50.328;8.542;2023-02-11T13:40:19;100241.94;;;6.84;82.59
69971;BME280;57301;50.328;8.542;2023-02-11T13:42:55;100239.69;;;7.08;81.34
69971;BME280;57301;50.328;8.542;2023-02-11T13:45:33;100238.94;;;6.90;82.27
69971;BME280;57301;50.328;8.542;2023-02-11T13:48:04;100244.63;;;7.14;81.18
69971;BME280;57301;50.328;8.542;2023-02-11T13:50:37;100255.63;;;6.92;82.19
69971;BME280;57301;50.328;8.542;2023-02-11T13:53:05;100251.78;;;7.28;81.01
69971;BME280;57301;50.328;8.542;2023-02-11T13:55:34;100254.66;;;6.93;82.48
69971;BME280;57301;50.328;8.542;2023-02-11T14:14:18;100259.38;;;6.41;84.85
69971;BME280;57301;50.328;8.542;2023-02-11T14:17:16;100247.69;;;6.61;83.96
69971;BME280;57301;50.328;8.542;2023-02-11T14:19:45;100252.66;;;6.83;83.44
69971;BME280;57301;50.328;8.542;2023-02-11T14:22:29;100248.97;;;6.54;84.01
69971;BME280;57301;50.328;8.542;2023-02-11T14:25:01;100255.47;;;6.95;82.25
69971;BME280;57301;50.328;8.542;2023-02-11T14:27:34;100261.72;;;6.79;82.77
69971;BME280;57301;50.328;8.542;2023-02-11T14:36:06;100277.84;;;6.42;84.26
69971;BME280;57301;50.328;8.542;2023-02-11T14:38:46;100277.28;;;6.53;84.58
69971;BME280;57301;50.328;8.542;2023-02-11T14:41:29;100276.78;;;6.94;82.84
69971;BME280;57301;50.328;8.542;2023-02-11T14:43:59;100281.28;;;7.08;81.43
69971;BME280;57301;50.328;8.542;2023-02-11T14:46:28;100275.47;;;7.01;81.68
69971;BME280;57301;50.328;8.542;2023-02-11T14:49:02;100276.63;;;7.11;81.68
69971;BME280;57301;50.328;8.542;2023-02-11T14:51:37;100273.94;;;6.97;81.95
69971;BME280;57301;50.328;8.542;2023-02-11T14:54:20;100275.81;;;6.95;82.26
69971;BME280;57301;50.328;8.542;2023-02-11T14:57:10;100273.59;;;6.71;83.16
69971;BME280;57301;50.328;8.542;2023-02-11T14:59:39;100280.59;;;6.72;83.45
69971;BME280;57301;50.328;8.542;2023-02-11T15:02:36;100279.75;;;6.72;83.52
69971;BME280;57301;50.328;8.542;2023-02-11T15:05:20;100281.88;;;6.50;84.10
69971;BME280;57301;50.328;8.542;2023-02-11T15:07:50;100285.72;;;6.60;84.73
69971;BME280;57301;50.328;8.542;2023-02-11T15:10:24;100278.28;;;6.66;84.23
69971;BME280;57301;50.328;8.542;2023-02-11T15:12:52;100285.81;;;6.58;84.79
69971;BME280;57301;50.328;8.542;2023-02-11T15:15:18;100283.97;;;6.76;82.80
69971;BME280;57301;50.328;8.542;2023-02-11T15:17:45;100288.19;;;6.63;84.01
69971;BME280;57301;50.328;8.542;2023-02-11T15:20:19;100288.72;;;6.85;83.14
69971;BME280;57301;50.328;8.542;2023-02-11T15:22:50;100292.16;;;6.71;83.12
69971;BME280;57301;50.328;8.542;2023-02-11T15:25:18;100306.59;;;6.97;83.13
69971;BME280;57301;50.328;8.542;2023-02-11T15:27:51;100303.84;;;6.99;82.26
69971;BME280;57301;50.328;8.542;2023-02-11T15:35:34;100320.38;;;7.04;81.81
69971;BME280;57301;50.328;8.542;2023-02-11T15:38:03;100325.44;;;7.09;81.63
69971;BME280;57301;50.328;8.542;2023-02-11T15:40:33;100325.59;;;7.06;82.22